Time;durP1;ratioP1;P1;durP2;ratioP2;P2;SDS_P1;SDS_P2;PMS_P1;PMS_P2;Temp;Humidity;BMP_temperature;BMP_pressure;BME280_temperature;BME280_humidity;BME280_pressure;Samples;Min_cycle;Max_cycle;Signal;HPM_P1;HPM_P2
2022/09/19 00:01:25;;;;;;;2.28;1.02;;;8.60;99.90;;;;;;5075031;28;20177;-73
2022/09/19 00:03:54;;;;;;;2.05;1.08;;;8.70;99.90;;;;;;5073657;28;20211;-73
2022/09/19 00:06:21;;;;;;;1.55;0.82;;;8.70;99.90;;;;;;5073760;28;20263;-73
2022/09/19 00:08:46;;;;;;;1.70;1.00;;;8.70;99.90;;;;;;5074389;28;20184;-73
2022/09/19 00:11:14;;;;;;;3.53;1.23;;;8.70;99.90;;;;;;5073560;28;20554;-73
2022/09/19 00:13:45;;;;;;;1.80;0.90;;;8.70;99.90;;;;;;5074581;28;20205;-73
2022/09/19 00:16:18;;;;;;;1.63;0.93;;;8.70;99.90;;;;;;5074649;28;20232;-73
2022/09/19 00:18:45;;;;;;;1.08;0.90;;;8.70;99.90;;;;;;5073691;28;20165;-73
2022/09/19 00:21:11;;;;;;;2.67;1.00;;;8.70;99.90;;;;;;5073990;28;20249;-73
2022/09/19 00:26:20;;;;;;;2.13;1.05;;;8.70;99.90;;;;;;5074893;28;20242;-73
2022/09/19 00:28:46;;;;;;;2.70;1.00;;;8.70;99.90;;;;;;5074732;28;20173;-73
2022/09/19 00:31:19;;;;;;;1.30;1.00;;;8.80;99.90;;;;;;5073179;28;20279;-73
2022/09/19 00:33:47;;;;;;;1.42;0.98;;;8.80;99.90;;;;;;5074322;28;20273;-73
2022/09/19 00:36:13;;;;;;;2.00;0.90;;;8.80;99.90;;;;;;5074209;28;20198;-73
2022/09/19 00:38:39;;;;;;;3.03;1.27;;;8.70;99.90;;;;;;5073259;28;20310;-73
2022/09/19 00:41:06;;;;;;;1.23;1.10;;;8.70;99.90;;;;;;5072972;28;20177;-73
2022/09/19 00:43:50;;;;;;;1.30;1.15;;;8.70;99.90;;;;;;5073193;28;20209;-73
2022/09/19 00:46:16;;;;;;;3.47;1.13;;;8.70;99.90;;;;;;5073702;28;20376;-73
2022/09/19 00:48:45;;;;;;;2.97;1.10;;;8.70;99.90;;;;;;5074374;28;20178;-73
2022/09/19 00:51:18;;;;;;;2.08;0.95;;;8.70;99.90;;;;;;5074045;28;20177;-73
2022/09/19 00:53:46;;;;;;;1.35;0.98;;;8.70;99.90;;;;;;5072810;28;20629;-73
2022/09/19 00:56:15;;;;;;;4.20;1.20;;;8.80;99.90;;;;;;5072624;28;20212;-73
2022/09/19 00:58:43;;;;;;;1.30;1.02;;;8.80;99.90;;;;;;5073544;28;20180;-73
2022/09/19 01:01:10;;;;;;;3.20;1.20;;;8.80;99.90;;;;;;5072670;28;20264;-73
2022/09/19 01:03:35;;;;;;;2.63;1.10;;;8.80;99.90;;;;;;5073367;28;20215;-73
2022/09/19 01:06:14;;;;;;;1.38;0.95;;;8.80;99.90;;;;;;5074406;28;20264;-73
2022/09/19 01:09:04;;;;;;;2.38;1.10;;;8.80;99.90;;;;;;5072484;28;20195;-73
2022/09/19 01:11:47;;;;;;;4.13;1.20;;;8.80;99.90;;;;;;5072576;28;20200;-73
2022/09/19 01:14:15;;;;;;;1.40;1.10;;;8.90;99.90;;;;;;5073799;28;20150;-73
2022/09/19 01:16:47;;;;;;;1.88;1.17;;;8.90;99.90;;;;;;5072254;28;20201;-73
2022/09/19 01:19:42;;;;;;;1.30;1.20;;;8.90;99.90;;;;;;5071954;28;20165;-73
2022/09/19 01:22:40;;;;;;;1.55;1.17;;;8.90;99.90;;;;;;5073079;28;20196;-73
2022/09/19 01:25:31;;;;;;;2.92;1.23;;;8.90;99.90;;;;;;5072362;28;20177;-73
2022/09/19 01:28:13;;;;;;;1.45;1.27;;;8.90;99.90;;;;;;5072322;28;20196;-73
2022/09/19 01:31:16;;;;;;;1.77;1.30;;;8.90;99.90;;;;;;5073000;28;20173;-73
2022/09/19 01:33:41;;;;;;;1.95;1.35;;;8.90;99.90;;;;;;5073512;28;20189;-73
2022/09/19 01:36:10;;;;;;;1.60;1.40;;;8.90;99.90;;;;;;5073656;28;20201;-73
2022/09/19 01:38:38;;;;;;;1.42;1.27;;;8.90;99.90;;;;;;5072195;28;20374;-73
2022/09/19 01:41:07;;;;;;;1.85;1.20;;;8.90;99.90;;;;;;5073615;28;20551;-73
2022/09/19 01:43:33;;;;;;;1.38;1.20;;;8.90;99.90;;;;;;5072329;28;20266;-73
2022/09/19 01:46:06;;;;;;;6.32;1.50;;;8.90;99.90;;;;;;5073607;28;20215;-73
2022/09/19 01:48:52;;;;;;;1.73;1.38;;;8.90;99.90;;;;;;5073036;28;20260;-73
2022/09/19 01:51:33;;;;;;;1.75;1.40;;;8.90;99.90;;;;;;5072897;28;20166;-73
2022/09/19 01:54:15;;;;;;;3.95;1.40;;;9.00;99.90;;;;;;5072978;28;20187;-73
2022/09/19 01:56:47;;;;;;;1.48;1.38;;;8.90;99.90;;;;;;5073465;28;20189;-73
2022/09/19 01:59:40;;;;;;;3.15;1.73;;;8.90;99.90;;;;;;5073564;28;20183;-73
2022/09/19 02:02:39;;;;;;;2.42;1.38;;;8.90;99.90;;;;;;5071960;28;20674;-73
2022/09/19 02:05:15;;;;;;;2.05;1.50;;;8.90;99.90;;;;;;5072494;28;20575;-73
2022/09/19 02:07:44;;;;;;;2.58;1.30;;;9.00;99.90;;;;;;5072096;28;20202;-73
2022/09/19 02:10:26;;;;;;;1.65;1.30;;;9.00;99.90;;;;;;5073161;28;20200;-73
2022/09/19 02:12:55;;;;;;;1.38;1.27;;;9.00;99.90;;;;;;5071877;28;20237;-73
2022/09/19 02:15:28;;;;;;;1.90;1.30;;;9.10;99.90;;;;;;5071886;28;20227;-73
2022/09/19 02:18:13;;;;;;;1.98;1.25;;;9.10;99.90;;;;;;5072669;28;20726;-73
2022/09/19 02:20:41;;;;;;;1.33;1.23;;;9.10;99.90;;;;;;5072649;28;20264;-73
2022/09/19 02:23:22;;;;;;;2.13;1.40;;;9.10;99.90;;;;;;5073046;28;20198;-73
2022/09/19 02:25:50;;;;;;;1.85;1.10;;;9.10;99.90;;;;;;5072959;28;20240;-73
2022/09/19 02:28:21;;;;;;;1.40;1.30;;;9.10;99.90;;;;;;5072990;28;20166;-73
2022/09/19 02:30:47;;;;;;;2.78;1.23;;;9.20;99.90;;;;;;5073486;28;20201;-73
2022/09/19 02:33:15;;;;;;;1.55;1.40;;;9.20;99.90;;;;;;5075369;28;20212;-73
2022/09/19 02:36:09;;;;;;;1.83;1.20;;;9.20;99.90;;;;;;5076250;28;20594;-73
2022/09/19 02:38:43;;;;;;;2.13;1.38;;;9.20;99.90;;;;;;5075402;28;20189;-73
2022/09/19 02:41:26;;;;;;;1.70;1.60;;;9.20;99.90;;;;;;5076239;28;20180;-73
2022/09/19 02:44:10;;;;;;;4.20;1.60;;;9.20;99.90;;;;;;5076349;28;20201;-73
2022/09/19 02:46:47;;;;;;;1.35;1.20;;;9.20;99.90;;;;;;5077012;28;20198;-73
2022/09/19 02:49:21;;;;;;;1.73;1.20;;;9.20;99.90;;;;;;5076104;28;20314;-73
2022/09/19 02:51:57;;;;;;;4.07;1.40;;;9.20;99.90;;;;;;5076359;28;20166;-73
2022/09/19 02:54:28;;;;;;;2.38;1.55;;;9.20;99.90;;;;;;5075147;28;20659;-73
2022/09/19 02:56:58;;;;;;;1.30;1.20;;;9.30;99.90;;;;;;5075006;28;20225;-73
2022/09/19 02:59:28;;;;;;;2.03;1.17;;;9.20;99.90;;;;;;5076258;28;20165;-73
2022/09/19 03:02:00;;;;;;;4.57;1.45;;;9.30;99.90;;;;;;5076343;28;20242;-73
2022/09/19 03:04:39;;;;;;;1.02;1.02;;;9.30;99.90;;;;;;5076166;28;20523;-73
2022/09/19 03:07:19;;;;;;;1.30;1.20;;;9.30;99.90;;;;;;5075352;28;20669;-73
2022/09/19 03:10:09;;;;;;;1.17;1.00;;;9.30;99.90;;;;;;5075727;28;20256;-73
2022/09/19 03:12:50;;;;;;;1.83;1.15;;;9.30;99.90;;;;;;5076315;28;20173;-73
2022/09/19 03:15:20;;;;;;;2.05;1.33;;;9.40;99.90;;;;;;5074827;28;20169;-73
2022/09/19 03:17:49;;;;;;;1.60;1.20;;;9.30;99.90;;;;;;5074654;28;20202;-73
2022/09/19 03:20:16;;;;;;;1.08;1.08;;;9.30;99.90;;;;;;5076775;28;20177;-73
2022/09/19 03:22:42;;;;;;;19.95;18.25;;;9.30;99.90;;;;;;5074484;28;20701;-73
2022/09/19 03:28:29;;;;;;;32.97;29.33;;;9.30;99.90;;;;;;5075953;28;20156;-73
2022/09/19 03:30:59;;;;;;;17.40;15.70;;;9.30;99.90;;;;;;5074414;28;20264;-73
2022/09/19 03:33:26;;;;;;;7.85;7.05;;;9.30;99.90;;;;;;5074439;28;20721;-73
2022/09/19 03:35:52;;;;;;;10.15;9.18;;;9.30;99.90;;;;;;5074317;28;20209;-73
2022/09/19 03:38:19;;;;;;;4.63;3.80;;;9.40;99.90;;;;;;5074327;28;20261;-73
2022/09/19 03:40:45;;;;;;;2.05;1.90;;;9.40;99.90;;;;;;5075729;28;20182;-73
2022/09/19 03:43:11;;;;;;;4.20;3.90;;;9.40;99.90;;;;;;5073738;28;20201;-73
2022/09/19 03:45:36;;;;;;;4.07;1.80;;;9.40;99.90;;;;;;5074053;28;20652;-73
2022/09/19 03:48:02;;;;;;;2.50;2.40;;;9.40;99.90;;;;;;5074220;28;20544;-73
2022/09/19 03:50:28;;;;;;;2.40;2.20;;;9.40;99.90;;;;;;5075229;28;20166;-73
2022/09/19 03:52:54;;;;;;;1.75;1.35;;;9.40;99.90;;;;;;5074984;28;20188;-73
2022/09/19 03:55:19;;;;;;;2.25;1.50;;;9.40;99.90;;;;;;5074775;28;20177;-73
2022/09/19 03:57:45;;;;;;;1.55;1.20;;;9.40;99.90;;;;;;5075137;28;20195;-73
2022/09/19 04:00:11;;;;;;;1.70;1.23;;;9.40;99.90;;;;;;5074124;28;20180;-73
2022/09/19 04:02:37;;;;;;;2.42;1.40;;;9.30;99.90;;;;;;5074875;28;20568;-73
2022/09/19 04:05:03;;;;;;;3.10;1.48;;;9.30;99.90;;;;;;5074148;28;20170;-73
2022/09/19 04:07:29;;;;;;;4.50;1.30;;;9.30;99.90;;;;;;5074709;28;20554;-73
2022/09/19 04:09:56;;;;;;;2.92;1.55;;;9.20;99.90;;;;;;5073609;28;20250;-73
2022/09/19 04:12:22;;;;;;;2.45;1.40;;;9.10;99.90;;;;;;5075730;28;20185;-73
2022/09/19 04:14:48;;;;;;;1.85;1.30;;;9.10;99.90;;;;;;5075878;28;20261;-73
2022/09/19 04:17:14;;;;;;;2.47;1.17;;;9.00;99.90;;;;;;5076874;28;20225;-74
2022/09/19 04:19:42;;;;;;;2.28;1.35;;;9.00;99.90;;;;;;5077338;28;20256;-73
2022/09/19 04:22:08;;;;;;;3.45;1.40;;;9.00;99.90;;;;;;5075887;28;20289;-73
2022/09/19 04:24:38;;;;;;;1.63;1.52;;;8.90;99.90;;;;;;5075414;28;20174;-73
2022/09/19 04:27:08;;;;;;;2.38;1.50;;;8.90;99.90;;;;;;5075272;28;20200;-73
2022/09/19 04:29:34;;;;;;;1.40;1.30;;;8.80;99.90;;;;;;5075718;28;20173;-75
2022/09/19 04:32:03;;;;;;;3.63;1.60;;;8.90;99.90;;;;;;5075810;28;20212;-75
2022/09/19 04:34:29;;;;;;;2.35;1.20;;;9.00;99.90;;;;;;5074726;28;20216;-75
2022/09/19 04:37:26;;;;;;;2.90;1.35;;;9.10;99.90;;;;;;5073331;28;20197;-75
2022/09/19 04:39:52;;;;;;;2.10;1.20;;;9.10;99.90;;;;;;5073945;28;20539;-75
2022/09/19 04:42:18;;;;;;;3.75;1.42;;;9.20;99.90;;;;;;5074086;28;20204;-75
2022/09/19 04:44:44;;;;;;;2.67;1.50;;;9.30;99.90;;;;;;5074687;28;20248;-77
2022/09/19 04:47:10;;;;;;;4.45;1.70;;;9.30;99.90;;;;;;5074472;28;20221;-75
2022/09/19 04:49:41;;;;;;;3.38;1.65;;;9.30;99.90;;;;;;5074431;28;20204;-75
2022/09/19 04:52:13;;;;;;;16.35;12.60;;;9.30;99.90;;;;;;5074033;28;20235;-75
2022/09/19 04:54:41;;;;;;;8.95;8.05;;;9.30;99.90;;;;;;5072013;28;20216;-75
2022/09/19 04:57:07;;;;;;;5.95;3.05;;;9.30;99.90;;;;;;5073277;28;20292;-74
2022/09/19 04:59:34;;;;;;;2.80;2.60;;;9.30;99.90;;;;;;5072692;28;20714;-74
2022/09/19 05:02:01;;;;;;;5.43;4.82;;;9.20;99.90;;;;;;5073835;28;20650;-74
2022/09/19 05:04:27;;;;;;;3.08;2.80;;;9.20;99.90;;;;;;5073559;28;20185;-74
2022/09/19 05:07:08;;;;;;;2.95;2.10;;;9.20;99.90;;;;;;5072491;28;20190;-74
2022/09/19 05:09:34;;;;;;;3.75;2.15;;;9.30;99.90;;;;;;5072630;28;20253;-74
2022/09/19 05:12:00;;;;;;;2.65;2.38;;;9.30;99.90;;;;;;5072707;28;20233;-74
2022/09/19 05:14:29;;;;;;;3.63;2.30;;;9.30;99.90;;;;;;5073034;28;20181;-74
2022/09/19 05:16:55;;;;;;;2.83;2.63;;;9.20;99.90;;;;;;5074069;28;20193;-74
2022/09/19 05:19:22;;;;;;;4.82;1.67;;;9.20;99.90;;;;;;5072750;28;20284;-74
2022/09/19 05:21:49;;;;;;;5.32;2.00;;;9.30;99.90;;;;;;5072465;28;20173;-75
2022/09/19 05:24:15;;;;;;;4.60;3.05;;;9.30;99.90;;;;;;5072763;28;20193;-75
2022/09/19 05:26:40;;;;;;;3.55;2.15;;;9.30;99.90;;;;;;5073808;28;20199;-74
2022/09/19 05:29:08;;;;;;;3.55;2.28;;;9.30;99.90;;;;;;5072292;28;20217;-74
2022/09/19 05:31:35;;;;;;;4.85;2.20;;;9.30;99.90;;;;;;5074559;28;20170;-75
2022/09/19 05:34:01;;;;;;;3.33;1.83;;;9.30;99.90;;;;;;5073088;28;20182;-75
2022/09/19 05:36:27;;;;;;;2.60;1.77;;;9.40;99.90;;;;;;5072477;28;20198;-75
2022/09/19 05:38:52;;;;;;;5.43;2.20;;;9.40;99.90;;;;;;5073766;28;20670;-75
2022/09/19 05:41:18;;;;;;;3.83;2.15;;;9.40;99.90;;;;;;5073622;28;20166;-75
2022/09/19 05:43:44;;;;;;;41.30;32.80;;;9.50;99.90;;;;;;5072449;28;20201;-74
2022/09/19 05:46:10;;;;;;;9.45;5.20;;;9.50;99.90;;;;;;5073349;28;20190;-74
2022/09/19 05:48:37;;;;;;;3.17;2.80;;;9.50;99.90;;;;;;5072480;28;20181;-74
2022/09/19 05:51:04;;;;;;;5.18;3.17;;;9.50;99.90;;;;;;5072197;28;20303;-73
2022/09/19 05:56:13;;;;;;;4.18;2.42;;;9.60;99.90;;;;;;5073420;28;20262;-75
2022/09/19 05:58:39;;;;;;;3.75;2.42;;;9.60;99.90;;;;;;5072877;28;20174;-75
2022/09/19 06:01:10;;;;;;;5.80;2.30;;;9.70;99.90;;;;;;5071926;28;20181;-75
2022/09/19 06:03:36;;;;;;;5.75;2.80;;;9.70;99.90;;;;;;5071892;28;20250;-75
2022/09/19 06:06:09;;;;;;;3.95;3.10;;;9.80;99.90;;;;;;5075011;28;20197;-75
2022/09/19 06:08:34;;;;;;;5.60;2.70;;;9.90;99.90;;;;;;5076013;28;20170;-75
2022/09/19 06:11:01;;;;;;;4.90;2.00;;;10.10;99.90;;;;;;5076314;28;20182;-75
2022/09/19 06:14:13;;;;;;;4.25;2.13;;;10.20;99.90;;;;;;5076482;28;20177;-75
2022/09/19 06:16:13;;;;;;;9.02;6.50;;;10.30;99.90;;;;;;5076933;28;20252;-75
2022/09/19 06:18:38;;;;;;;7.18;6.45;;;10.40;99.90;;;;;;5076900;28;20205;-75
2022/09/19 06:21:04;;;;;;;5.78;3.03;;;10.40;99.90;;;;;;5076995;28;20169;-75
2022/09/19 06:23:30;;;;;;;5.55;2.30;;;10.40;99.90;;;;;;5077903;28;20198;-75
2022/09/19 06:25:55;;;;;;;3.38;2.42;;;10.40;99.90;;;;;;5075547;28;20204;-75
2022/09/19 06:28:21;;;;;;;5.60;3.15;;;10.40;99.90;;;;;;5075650;28;20224;-74
2022/09/19 06:30:47;;;;;;;4.05;3.30;;;10.50;99.90;;;;;;5075832;28;20268;-74
2022/09/19 06:33:12;;;;;;;4.25;2.60;;;10.40;99.90;;;;;;5075847;28;20220;-75
2022/09/19 06:35:38;;;;;;;4.38;2.63;;;10.50;99.90;;;;;;5075714;28;20181;-75
2022/09/19 06:38:07;;;;;;;3.20;2.03;;;10.50;99.90;;;;;;5076563;28;20177;-75
2022/09/19 06:40:36;;;;;;;3.95;2.33;;;10.50;99.90;;;;;;5075407;28;20267;-75
2022/09/19 06:43:04;;;;;;;4.63;2.35;;;10.50;99.90;;;;;;5076758;28;20232;-75
2022/09/19 06:45:30;;;;;;;3.85;1.92;;;10.60;99.90;;;;;;5076162;28;20201;-75
2022/09/19 06:48:00;;;;;;;2.25;1.70;;;10.60;99.90;;;;;;5075408;28;20190;-75
2022/09/19 06:50:26;;;;;;;4.72;1.88;;;10.70;99.90;;;;;;5075733;28;20243;-75
2022/09/19 06:52:53;;;;;;;5.00;1.92;;;10.90;99.90;;;;;;5075197;28;20184;-75
2022/09/19 06:55:18;;;;;;;2.47;1.50;;;11.10;99.90;;;;;;5075406;28;20181;-75
2022/09/19 06:57:54;;;;;;;7.05;1.55;;;11.30;99.90;;;;;;5074996;28;20315;-75
2022/09/19 07:00:22;;;;;;;3.10;1.60;;;11.50;99.90;;;;;;5074992;28;20260;-75
2022/09/19 07:02:48;;;;;;;5.78;1.70;;;11.50;99.90;;;;;;5076417;28;20231;-75
2022/09/19 07:05:14;;;;;;;3.58;1.58;;;11.40;99.90;;;;;;5076131;28;20170;-75
2022/09/19 07:07:39;;;;;;;3.42;1.55;;;11.30;99.90;;;;;;5075154;28;20285;-75
2022/09/19 07:10:05;;;;;;;5.20;1.70;;;11.20;99.90;;;;;;5074887;28;20174;-75
2022/09/19 07:12:31;;;;;;;3.03;1.42;;;11.20;99.90;;;;;;5074752;28;20178;-75
2022/09/19 07:14:56;;;;;;;4.20;1.50;;;11.20;99.90;;;;;;5075036;28;20233;-75
2022/09/19 07:17:22;;;;;;;1.80;1.55;;;11.30;99.90;;;;;;5074999;28;20205;-75
2022/09/19 07:19:47;;;;;;;4.65;1.77;;;11.40;99.90;;;;;;5076683;28;20201;-75
2022/09/19 07:22:13;;;;;;;3.75;1.60;;;11.50;99.90;;;;;;5074499;28;20209;-75
2022/09/19 07:24:39;;;;;;;2.85;1.40;;;11.70;99.90;;;;;;5074587;28;20200;-75
2022/09/19 07:27:04;;;;;;;2.40;1.35;;;12.00;99.90;;;;;;5074476;28;20198;-75
2022/09/19 07:29:30;;;;;;;3.03;1.45;;;12.20;99.90;;;;;;5074451;28;20184;-75
2022/09/19 07:31:56;;;;;;;4.78;1.73;;;12.20;99.90;;;;;;5074637;28;20276;-75
2022/09/19 07:34:22;;;;;;;5.25;1.70;;;12.30;99.90;;;;;;5074390;28;20177;-75
2022/09/19 07:36:47;;;;;;;2.60;1.40;;;12.30;99.90;;;;;;5074328;28;20198;-75
2022/09/19 07:39:13;;;;;;;3.05;1.33;;;12.30;99.90;;;;;;5075780;28;20174;-75
2022/09/19 07:41:38;;;;;;;5.20;2.10;;;12.20;99.90;;;;;;5075517;28;20199;-75
2022/09/19 07:44:04;;;;;;;3.83;1.80;;;12.10;99.90;;;;;;5074136;28;20197;-75
2022/09/19 07:46:29;;;;;;;2.75;1.63;;;12.10;99.90;;;;;;5075577;28;20598;-75
2022/09/19 07:48:55;;;;;;;2.58;1.42;;;11.90;99.90;;;;;;5074416;28;20201;-75
2022/09/19 07:51:21;;;;;;;2.05;1.33;;;11.90;99.90;;;;;;5075208;28;20659;-75
2022/09/19 07:53:49;;;;;;;6.05;1.70;;;11.80;99.90;;;;;;5074343;28;20578;-75
2022/09/19 07:56:14;;;;;;;3.90;1.63;;;11.80;99.90;;;;;;5073862;28;20201;-75
2022/09/19 07:58:40;;;;;;;4.40;1.70;;;11.70;99.90;;;;;;5074201;28;20203;-75
2022/09/19 08:01:06;;;;;;;2.72;1.60;;;11.70;99.90;;;;;;5073879;28;20205;-75
2022/09/19 08:03:31;;;;;;;5.78;1.60;;;11.70;99.90;;;;;;5073679;28;20228;-75
2022/09/19 08:06:00;;;;;;;2.50;1.42;;;11.70;99.90;;;;;;5074097;28;20729;-75
2022/09/19 08:08:26;;;;;;;9.93;1.80;;;11.70;99.90;;;;;;5073738;28;20177;-75
2022/09/19 08:10:53;;;;;;;4.70;1.73;;;11.70;99.90;;;;;;5075202;28;20230;-75
2022/09/19 08:13:19;;;;;;;4.70;1.60;;;11.80;99.90;;;;;;5073598;28;20177;-75
2022/09/19 08:15:46;;;;;;;4.60;1.80;;;12.00;99.90;;;;;;5073571;28;20200;-75
2022/09/19 08:18:17;;;;;;;5.22;1.92;;;12.10;99.90;;;;;;5073494;28;20188;-75
2022/09/19 08:20:43;;;;;;;5.07;1.60;;;12.30;99.90;;;;;;5073416;28;20184;-75
2022/09/19 08:23:12;;;;;;;4.03;2.53;;;12.50;99.90;;;;;;5073368;28;20292;-75
2022/09/19 08:25:41;;;;;;;9.60;8.60;;;12.60;99.90;;;;;;5073538;28;20628;-75
2022/09/19 08:29:00;;;;;;;14.70;13.18;;;12.60;99.90;;;;;;5074868;28;20173;-75
2022/09/19 08:31:26;;;;;;;5.82;3.58;;;12.70;99.90;;;;;;5075192;28;20154;-75
2022/09/19 08:33:51;;;;;;;5.40;3.03;;;12.60;99.90;;;;;;5073577;28;20208;-75
2022/09/19 08:36:17;;;;;;;3.78;2.00;;;12.70;99.90;;;;;;5073424;28;20202;-74
2022/09/19 08:38:43;;;;;;;3.13;1.65;;;12.70;99.90;;;;;;5073113;28;20246;-74
2022/09/19 08:41:33;;;;;;;3.80;2.13;;;12.70;99.90;;;;;;5074274;28;20169;-74
2022/09/19 08:44:17;;;;;;;6.95;4.50;;;12.80;99.90;;;;;;5073034;28;20276;-74
2022/09/19 08:46:52;;;;;;;5.35;3.83;;;12.90;99.90;;;;;;5073023;28;20260;-74
2022/09/19 08:49:33;;;;;;;4.45;3.45;;;12.90;99.90;;;;;;5075070;28;20188;-74
2022/09/19 08:52:08;;;;;;;4.25;2.13;;;12.90;99.90;;;;;;5074656;28;20173;-74
2022/09/19 08:54:40;;;;;;;3.72;1.90;;;12.90;99.90;;;;;;5074134;28;20212;-74
2022/09/19 08:57:16;;;;;;;4.72;2.50;;;13.00;99.90;;;;;;5074331;28;20197;-74
2022/09/19 08:59:44;;;;;;;5.15;2.08;;;13.00;99.90;;;;;;5073698;28;20193;-74
2022/09/19 09:02:28;;;;;;;6.40;3.17;;;13.10;99.90;;;;;;5073128;28;20192;-74
2022/09/19 09:04:54;;;;;;;11.75;7.47;;;13.00;99.90;;;;;;5074289;28;20188;-75
2022/09/19 09:07:38;;;;;;;14.38;11.27;;;13.00;99.90;;;;;;5074280;28;20217;-74
2022/09/19 09:10:14;;;;;;;8.77;7.80;;;13.10;99.90;;;;;;5073037;28;20687;-74
2022/09/19 09:12:54;;;;;;;9.00;3.47;;;13.20;99.90;;;;;;5072621;28;20271;-75
2022/09/19 09:15:58;;;;;;;12.23;5.50;;;13.30;99.90;;;;;;5074130;28;20215;-75
2022/09/19 09:18:50;;;;;;;27.15;15.43;;;13.20;99.90;;;;;;5073436;28;20303;-75
2022/09/19 09:21:28;;;;;;;8.25;3.88;;;13.10;99.90;;;;;;5073700;28;20170;-75
2022/09/19 09:24:14;;;;;;;11.25;3.28;;;13.20;99.90;;;;;;5072388;28;20201;-75
2022/09/19 09:26:44;;;;;;;7.22;2.80;;;13.50;99.90;;;;;;5073921;28;20559;-75
2022/09/19 09:29:28;;;;;;;10.57;3.45;;;13.70;99.90;;;;;;5073848;28;20252;-75
2022/09/19 09:32:21;;;;;;;5.53;2.45;;;14.00;99.90;;;;;;5072887;28;20180;-75
2022/09/19 09:34:58;;;;;;;6.30;2.13;;;14.10;99.90;;;;;;5072884;28;20177;-75
2022/09/19 09:37:54;;;;;;;5.20;1.73;;;14.30;99.90;;;;;;5073044;28;20260;-75
2022/09/19 09:43:11;;;;;;;7.55;1.92;;;14.20;99.90;;;;;;5073768;28;20270;-75
2022/09/19 09:45:48;;;;;;;8.02;2.22;;;14.10;99.90;;;;;;5072078;28;20177;-79
2022/09/19 09:48:33;;;;;;;8.18;1.88;;;13.90;99.90;;;;;;5072578;28;20244;-75
2022/09/19 09:51:05;;;;;;;4.50;1.60;;;13.80;99.90;;;;;;5072495;28;20315;-74
2022/09/19 09:53:30;;;;;;;4.28;1.52;;;13.80;99.90;;;;;;5072974;28;20255;-74
2022/09/19 09:56:16;;;;;;;17.80;3.28;;;14.00;99.90;;;;;;5072835;28;20668;-74
2022/09/19 09:58:58;;;;;;;5.78;2.05;;;14.30;99.90;;;;;;5074136;28;20185;-75
2022/09/19 10:04:36;;;;;;;5.95;1.50;;;14.80;99.90;;;;;;5073145;28;20196;-75
2022/09/19 10:07:33;;;;;;;5.50;1.45;;;14.70;99.90;;;;;;5072649;28;20197;-75
2022/09/19 10:10:03;;;;;;;10.52;2.17;;;14.70;99.90;;;;;;5072805;28;20185;-75
2022/09/19 10:12:38;;;;;;;15.70;2.00;;;14.70;99.90;;;;;;5072790;28;20252;-75
2022/09/19 10:15:09;;;;;;;13.13;1.90;;;14.80;99.90;;;;;;5073445;28;20181;-76
2022/09/19 10:17:39;;;;;;;9.10;1.90;;;14.80;99.90;;;;;;5071925;28;20208;-75
2022/09/19 10:20:15;;;;;;;4.38;1.75;;;15.00;99.90;;;;;;5073358;28;20721;-75
2022/09/19 10:29:33;;;;;;;7.88;2.00;;;14.90;99.90;;;;;;5073270;28;20157;-74
2022/09/19 10:32:07;;;;;;;8.80;1.80;;;14.60;99.90;;;;;;5071939;28;20181;-74
2022/09/19 10:34:34;;;;;;;6.18;1.80;;;14.50;99.90;;;;;;5072978;28;20164;-74
2022/09/19 10:37:03;;;;;;;8.68;1.88;;;14.60;99.90;;;;;;5071935;28;20201;-74
2022/09/19 10:39:29;;;;;;;7.43;2.25;;;14.70;99.90;;;;;;5071694;28;20188;-74
2022/09/19 10:41:55;;;;;;;10.70;2.17;;;14.90;99.90;;;;;;5074051;28;20177;-75
2022/09/19 10:44:24;;;;;;;3.67;1.77;;;15.30;99.90;;;;;;5071459;28;20193;-75
2022/09/19 10:47:03;;;;;;;5.57;1.90;;;15.60;99.90;;;;;;5072722;28;20181;-75
2022/09/19 10:49:37;;;;;;;9.63;1.80;;;15.70;99.90;;;;;;5071800;28;20196;-75
2022/09/19 10:52:04;;;;;;;5.32;2.05;;;15.50;99.90;;;;;;5074118;28;20191;-75
2022/09/19 10:54:40;;;;;;;8.75;1.80;;;15.30;99.90;;;;;;5075276;28;20260;-75
2022/09/19 10:57:41;;;;;;;4.75;1.83;;;15.00;99.90;;;;;;5075956;28;20193;-75
2022/09/19 11:00:23;;;;;;;7.65;1.88;;;14.90;99.90;;;;;;5075386;28;20184;-75
2022/09/19 11:03:03;;;;;;;8.07;3.35;;;14.70;99.90;;;;;;5075500;28;20225;-75
2022/09/19 11:05:32;;;;;;;13.88;4.97;;;14.80;99.90;;;;;;5076470;28;20165;-75
2022/09/19 11:07:59;;;;;;;18.80;10.30;;;15.10;99.90;;;;;;5075624;28;20288;-75
2022/09/19 11:10:38;;;;;;;6.55;3.42;;;15.30;99.90;;;;;;5075771;28;20231;-75
2022/09/19 11:13:17;;;;;;;13.88;9.35;;;15.60;99.90;;;;;;5074804;28;20178;-75
2022/09/19 11:16:11;;;;;;;15.00;7.55;;;15.80;99.90;;;;;;5075963;28;20173;-75
2022/09/19 11:19:00;;;;;;;7.50;3.78;;;15.80;99.90;;;;;;5074764;28;20170;-75
2022/09/19 11:21:50;;;;;;;4.70;3.75;;;15.70;99.90;;;;;;5075873;28;20236;-75
2022/09/19 11:24:41;;;;;;;27.63;20.73;;;15.80;99.90;;;;;;5074619;28;20205;-75
2022/09/19 11:27:21;;;;;;;15.35;4.50;;;15.70;99.90;;;;;;5075040;28;20197;-75
2022/09/19 11:30:22;;;;;;;11.40;2.95;;;15.80;99.90;;;;;;5074584;28;20174;-75
2022/09/19 11:33:16;;;;;;;5.15;2.45;;;16.00;99.90;;;;;;5074980;28;20289;-75
2022/09/19 11:36:19;;;;;;;7.32;2.40;;;16.10;99.90;;;;;;5075450;28;20529;-75
2022/09/19 11:39:06;;;;;;;4.28;1.90;;;16.40;99.90;;;;;;5074317;28;20555;-75
2022/09/19 11:41:53;;;;;;;5.30;1.95;;;16.40;99.90;;;;;;5075153;28;20223;-75
2022/09/19 11:44:31;;;;;;;6.28;2.50;;;16.30;99.90;;;;;;5075023;28;20186;-75
2022/09/19 11:47:34;;;;;;;7.97;2.28;;;16.00;99.90;;;;;;5074997;28;20283;-75
2022/09/19 11:50:20;;;;;;;10.35;2.70;;;15.50;99.90;;;;;;5074169;28;20177;-75
2022/09/19 11:53:07;;;;;;;5.72;2.03;;;14.90;99.90;;;;;;5075682;28;20189;-75
2022/09/19 11:56:23;;;;;;;3.78;1.58;;;14.40;99.90;;;;;;5075259;28;20245;-75
2022/09/19 11:59:25;;;;;;;2.80;1.40;;;13.80;99.90;;;;;;5066159;28;20192;-75
2022/09/19 12:02:31;;;;;;;2.60;1.30;;;13.40;99.90;;;;;;5073930;28;20165;-75
2022/09/19 12:05:06;;;;;;;1.55;1.02;;;13.20;99.90;;;;;;5075064;28;20268;-75
2022/09/19 12:07:44;;;;;;;1.58;1.30;;;13.10;99.90;;;;;;5075275;28;20193;-75
2022/09/19 12:10:25;;;;;;;2.45;1.25;;;13.10;99.90;;;;;;5073843;28;20166;-75
2022/09/19 12:13:00;;;;;;;1.35;1.20;;;13.50;99.90;;;;;;5074863;28;20245;-75
2022/09/19 12:15:30;;;;;;;4.05;1.33;;;13.70;99.90;;;;;;5073684;28;20193;-75
2022/09/19 12:17:58;;;;;;;3.08;1.60;;;14.00;99.90;;;;;;5074713;28;20197;-75
2022/09/19 12:20:37;;;;;;;2.05;1.30;;;14.30;99.90;;;;;;5073787;28;20212;-75
2022/09/19 12:26:09;;;;;;;3.15;1.70;;;14.40;99.90;;;;;;5074774;28;20278;-75
2022/09/19 12:28:50;;;;;;;3.85;1.40;;;14.40;99.90;;;;;;5073667;28;20226;-75
2022/09/19 12:31:20;;;;;;;1.88;1.55;;;14.40;99.90;;;;;;5073408;28;20165;-75
2022/09/19 12:33:51;;;;;;;4.78;1.90;;;14.40;99.90;;;;;;5073723;28;20185;-75
2022/09/19 12:36:23;;;;;;;2.88;1.60;;;14.50;99.90;;;;;;5074084;28;20216;-74
2022/09/19 12:39:03;;;;;;;2.33;1.77;;;14.70;99.90;;;;;;5073491;28;20632;-75
2022/09/19 12:41:46;;;;;;;5.10;2.05;;;14.90;99.90;;;;;;5073179;28;20180;-75
2022/09/19 12:44:34;;;;;;;3.38;1.70;;;15.10;99.90;;;;;;5073914;28;20189;-75
2022/09/19 12:47:20;;;;;;;3.80;2.15;;;15.30;99.90;;;;;;5072909;28;20679;-74
2022/09/19 12:49:56;;;;;;;2.42;2.05;;;15.40;99.90;;;;;;5073000;28;20692;-74
2022/09/19 12:52:32;;;;;;;2.72;1.70;;;15.20;99.90;;;;;;5072945;28;20203;-74
2022/09/19 12:55:04;;;;;;;3.85;2.03;;;15.10;99.90;;;;;;5074022;28;20726;-74
2022/09/19 12:57:44;;;;;;;1.58;1.40;;;15.10;99.90;;;;;;5073294;28;20215;-74
2022/09/19 13:00:11;;;;;;;2.92;1.70;;;14.80;99.90;;;;;;5073074;28;20678;-74
2022/09/19 13:02:51;;;;;;;2.00;1.40;;;14.60;99.90;;;;;;5072677;28;20251;-74
2022/09/19 13:05:28;;;;;;;3.60;1.50;;;14.30;99.90;;;;;;5074795;28;20157;-74
2022/09/19 13:07:59;;;;;;;3.80;1.77;;;14.10;99.90;;;;;;5074162;28;20250;-74
2022/09/19 13:10:36;;;;;;;2.13;1.10;;;13.90;99.90;;;;;;5073189;28;20166;-74
2022/09/19 13:13:47;;;;;;;0.85;0.80;;;13.70;99.90;;;;;;5072670;28;20705;-74
2022/09/19 13:16:16;;;;;;;2.63;1.00;;;13.50;99.90;;;;;;5072072;28;20694;-74
2022/09/19 13:24:36;;;;;;;5.95;0.77;;;12.70;99.90;;;;;;5073617;28;20235;-74
2022/09/19 13:27:04;;;;;;;0.90;0.80;;;12.50;99.90;;;;;;5072816;28;20197;-74
2022/09/19 13:29:29;;;;;;;3.20;0.50;;;12.60;99.90;;;;;;5072363;28;20177;-74
2022/09/19 13:32:04;;;;;;;0.45;0.43;;;12.80;99.90;;;;;;5072585;28;20242;-74
2022/09/19 13:34:32;;;;;;;0.93;0.50;;;12.80;99.90;;;;;;5072298;28;20180;-73
2022/09/19 13:37:04;;;;;;;1.27;0.60;;;12.90;99.90;;;;;;5072489;28;20307;-74
2022/09/19 13:40:15;;;;;;;1.13;0.50;;;12.90;99.90;;;;;;5072479;28;20648;-74
2022/09/19 13:42:49;;;;;;;0.35;0.30;;;12.80;99.90;;;;;;5073638;28;20213;-74
2022/09/19 13:45:26;;;;;;;0.50;0.50;;;12.60;99.90;;;;;;5073085;28;20170;-74
2022/09/19 13:48:01;;;;;;;0.60;0.47;;;12.40;99.90;;;;;;5072562;28;20263;-74
2022/09/19 13:50:52;;;;;;;0.65;0.50;;;12.40;99.90;;;;;;5073640;28;20565;-74
2022/09/19 13:53:30;;;;;;;0.40;0.40;;;12.20;99.90;;;;;;5069641;28;20684;-74